sensor_id;sensor_type;location;lat;lon;timestamp;P1;durP1;ratioP1;P2;durP2;ratioP2
70818;SDS011;58439;51.046;13.692;2023-06-10T00:02:05;13.23;;;9.00;;
70818;SDS011;58439;51.046;13.692;2023-06-10T00:04:32;17.17;;;9.60;;
70818;SDS011;58439;51.046;13.692;2023-06-10T00:07:00;14.23;;;8.77;;
70818;SDS011;58439;51.046;13.692;2023-06-10T00:09:30;17.10;;;9.05;;
70818;SDS011;58439;51.046;13.692;2023-06-10T00:12:07;15.02;;;9.27;;
70818;SDS011;58439;51.046;13.692;2023-06-10T00:14:39;10.88;;;8.75;;
70818;SDS011;58439;51.046;13.692;2023-06-10T00:17:18;13.48;;;9.55;;
70818;SDS011;58439;51.046;13.692;2023-06-10T00:19:48;13.90;;;10.07;;
70818;SDS011;58439;51.046;13.692;2023-06-10T00:22:17;13.07;;;9.77;;
70818;SDS011;58439;51.046;13.692;2023-06-10T00:24:45;14.73;;;9.77;;
70818;SDS011;58439;51.046;13.692;2023-06-10T00:27:17;14.43;;;9.77;;
70818;SDS011;58439;51.046;13.692;2023-06-10T00:29:45;17.00;;;10.05;;
70818;SDS011;58439;51.046;13.692;2023-06-10T00:32:12;19.25;;;10.85;;
70818;SDS011;58439;51.046;13.692;2023-06-10T00:34:39;15.57;;;10.55;;
70818;SDS011;58439;51.046;13.692;2023-06-10T00:37:06;15.23;;;10.38;;
70818;SDS011;58439;51.046;13.692;2023-06-10T00:39:36;15.40;;;9.98;;
70818;SDS011;58439;51.046;13.692;2023-06-10T00:42:03;16.15;;;10.35;;
70818;SDS011;58439;51.046;13.692;2023-06-10T00:44:37;14.63;;;9.88;;
70818;SDS011;58439;51.046;13.692;2023-06-10T00:47:05;16.88;;;11.20;;
70818;SDS011;58439;51.046;13.692;2023-06-10T00:49:35;16.27;;;9.88;;
70818;SDS011;58439;51.046;13.692;2023-06-10T00:52:05;17.35;;;11.15;;
70818;SDS011;58439;51.046;13.692;2023-06-10T00:54:40;15.77;;;10.70;;
70818;SDS011;58439;51.046;13.692;2023-06-10T00:57:08;14.80;;;11.55;;
70818;SDS011;58439;51.046;13.692;2023-06-10T00:59:37;20.48;;;11.63;;
70818;SDS011;58439;51.046;13.692;2023-06-10T01:02:07;14.13;;;10.68;;
70818;SDS011;58439;51.046;13.692;2023-06-10T01:04:36;14.10;;;10.20;;
70818;SDS011;58439;51.046;13.692;2023-06-10T01:07:14;13.50;;;10.80;;
70818;SDS011;58439;51.046;13.692;2023-06-10T01:10:08;17.15;;;11.20;;
70818;SDS011;58439;51.046;13.692;2023-06-10T01:13:00;16.75;;;11.75;;
70818;SDS011;58439;51.046;13.692;2023-06-10T01:15:33;14.63;;;11.15;;
70818;SDS011;58439;51.046;13.692;2023-06-10T01:18:08;14.80;;;11.63;;
70818;SDS011;58439;51.046;13.692;2023-06-10T01:20:42;15.25;;;11.10;;
70818;SDS011;58439;51.046;13.692;2023-06-10T01:23:17;18.10;;;11.32;;
70818;SDS011;58439;51.046;13.692;2023-06-10T01:25:49;16.77;;;12.00;;
70818;SDS011;58439;51.046;13.692;2023-06-10T01:28:35;17.83;;;12.00;;
70818;SDS011;58439;51.046;13.692;2023-06-10T01:31:18;16.45;;;12.63;;
70818;SDS011;58439;51.046;13.692;2023-06-10T01:34:01;17.67;;;13.35;;
70818;SDS011;58439;51.046;13.692;2023-06-10T01:36:38;20.17;;;12.40;;
70818;SDS011;58439;51.046;13.692;2023-06-10T01:39:08;17.42;;;12.20;;
70818;SDS011;58439;51.046;13.692;2023-06-10T01:41:37;19.23;;;12.57;;
70818;SDS011;58439;51.046;13.692;2023-06-10T01:44:06;15.32;;;11.98;;
70818;SDS011;58439;51.046;13.692;2023-06-10T01:46:35;19.58;;;12.57;;
70818;SDS011;58439;51.046;13.692;2023-06-10T01:49:03;17.23;;;12.45;;
70818;SDS011;58439;51.046;13.692;2023-06-10T01:51:30;15.73;;;12.25;;
70818;SDS011;58439;51.046;13.692;2023-06-10T01:53:59;16.20;;;12.23;;
70818;SDS011;58439;51.046;13.692;2023-06-10T01:56:26;16.80;;;12.60;;
70818;SDS011;58439;51.046;13.692;2023-06-10T01:58:55;40.83;;;15.15;;
70818;SDS011;58439;51.046;13.692;2023-06-10T02:01:25;17.10;;;12.23;;
70818;SDS011;58439;51.046;13.692;2023-06-10T02:03:54;18.90;;;13.07;;
70818;SDS011;58439;51.046;13.692;2023-06-10T02:06:22;19.50;;;11.82;;
70818;SDS011;58439;51.046;13.692;2023-06-10T02:08:53;14.68;;;12.18;;
70818;SDS011;58439;51.046;13.692;2023-06-10T02:11:21;15.75;;;12.43;;
70818;SDS011;58439;51.046;13.692;2023-06-10T02:13:52;14.85;;;12.15;;
70818;SDS011;58439;51.046;13.692;2023-06-10T02:16:25;19.40;;;12.55;;
70818;SDS011;58439;51.046;13.692;2023-06-10T02:18:54;16.33;;;12.15;;
70818;SDS011;58439;51.046;13.692;2023-06-10T02:21:22;18.88;;;12.57;;
70818;SDS011;58439;51.046;13.692;2023-06-10T02:23:49;17.00;;;12.48;;
70818;SDS011;58439;51.046;13.692;2023-06-10T02:26:16;16.42;;;11.85;;
70818;SDS011;58439;51.046;13.692;2023-06-10T02:28:43;18.23;;;12.70;;
70818;SDS011;58439;51.046;13.692;2023-06-10T02:31:12;20.00;;;12.07;;
70818;SDS011;58439;51.046;13.692;2023-06-10T02:33:40;14.63;;;11.57;;
70818;SDS011;58439;51.046;13.692;2023-06-10T02:36:08;16.58;;;11.90;;
70818;SDS011;58439;51.046;13.692;2023-06-10T02:38:40;14.65;;;11.02;;
70818;SDS011;58439;51.046;13.692;2023-06-10T02:41:07;17.38;;;11.68;;
70818;SDS011;58439;51.046;13.692;2023-06-10T02:43:37;18.58;;;12.02;;
70818;SDS011;58439;51.046;13.692;2023-06-10T02:46:10;16.42;;;11.70;;
70818;SDS011;58439;51.046;13.692;2023-06-10T02:48:43;18.58;;;11.82;;
70818;SDS011;58439;51.046;13.692;2023-06-10T02:51:23;15.75;;;12.13;;
70818;SDS011;58439;51.046;13.692;2023-06-10T02:53:56;15.90;;;12.10;;
70818;SDS011;58439;51.046;13.692;2023-06-10T02:56:31;16.00;;;11.82;;
70818;SDS011;58439;51.046;13.692;2023-06-10T02:59:17;15.82;;;11.57;;
70818;SDS011;58439;51.046;13.692;2023-06-10T03:01:45;15.23;;;11.32;;
70818;SDS011;58439;51.046;13.692;2023-06-10T03:04:13;19.08;;;12.27;;
70818;SDS011;58439;51.046;13.692;2023-06-10T03:06:49;16.55;;;11.30;;
70818;SDS011;58439;51.046;13.692;2023-06-10T03:09:22;15.80;;;11.02;;
70818;SDS011;58439;51.046;13.692;2023-06-10T03:11:53;17.25;;;11.55;;
70818;SDS011;58439;51.046;13.692;2023-06-10T03:14:20;15.82;;;10.90;;
70818;SDS011;58439;51.046;13.692;2023-06-10T03:16:48;15.63;;;11.48;;
70818;SDS011;58439;51.046;13.692;2023-06-10T03:19:15;15.52;;;11.52;;
70818;SDS011;58439;51.046;13.692;2023-06-10T03:21:49;14.07;;;11.13;;
70818;SDS011;58439;51.046;13.692;2023-06-10T03:24:35;16.88;;;11.70;;
70818;SDS011;58439;51.046;13.692;2023-06-10T03:27:04;14.23;;;11.70;;
70818;SDS011;58439;51.046;13.692;2023-06-10T03:29:35;14.80;;;11.07;;
70818;SDS011;58439;51.046;13.692;2023-06-10T03:32:06;15.82;;;11.75;;
70818;SDS011;58439;51.046;13.692;2023-06-10T03:34:36;15.45;;;11.30;;
70818;SDS011;58439;51.046;13.692;2023-06-10T03:37:04;16.83;;;11.60;;
70818;SDS011;58439;51.046;13.692;2023-06-10T03:39:31;13.75;;;10.77;;
70818;SDS011;58439;51.046;13.692;2023-06-10T03:42:00;14.45;;;11.25;;
70818;SDS011;58439;51.046;13.692;2023-06-10T03:44:29;15.68;;;11.43;;
70818;SDS011;58439;51.046;13.692;2023-06-10T03:46:56;14.35;;;10.50;;
70818;SDS011;58439;51.046;13.692;2023-06-10T03:49:25;19.42;;;11.48;;
70818;SDS011;58439;51.046;13.692;2023-06-10T03:51:58;14.95;;;11.13;;
70818;SDS011;58439;51.046;13.692;2023-06-10T03:54:26;15.95;;;11.25;;
70818;SDS011;58439;51.046;13.692;2023-06-10T03:56:58;16.80;;;11.65;;
70818;SDS011;58439;51.046;13.692;2023-06-10T03:59:25;14.35;;;11.02;;
70818;SDS011;58439;51.046;13.692;2023-06-10T04:01:52;15.52;;;11.30;;
70818;SDS011;58439;51.046;13.692;2023-06-10T04:04:20;16.80;;;11.90;;
70818;SDS011;58439;51.046;13.692;2023-06-10T04:06:47;18.63;;;11.52;;
70818;SDS011;58439;51.046;13.692;2023-06-10T04:09:15;14.23;;;11.02;;
70818;SDS011;58439;51.046;13.692;2023-06-10T04:11:44;20.00;;;11.40;;
70818;SDS011;58439;51.046;13.692;2023-06-10T04:14:12;18.27;;;11.43;;
70818;SDS011;58439;51.046;13.692;2023-06-10T04:16:40;21.20;;;12.55;;
70818;SDS011;58439;51.046;13.692;2023-06-10T04:19:10;18.90;;;11.70;;
70818;SDS011;58439;51.046;13.692;2023-06-10T04:21:37;16.35;;;11.77;;
70818;SDS011;58439;51.046;13.692;2023-06-10T04:24:04;19.23;;;11.68;;
70818;SDS011;58439;51.046;13.692;2023-06-10T04:26:32;18.83;;;11.80;;
70818;SDS011;58439;51.046;13.692;2023-06-10T04:29:04;20.48;;;11.88;;
70818;SDS011;58439;51.046;13.692;2023-06-10T04:31:31;19.90;;;11.75;;
70818;SDS011;58439;51.046;13.692;2023-06-10T04:33:59;17.38;;;12.02;;
70818;SDS011;58439;51.046;13.692;2023-06-10T04:36:28;18.67;;;12.82;;
70818;SDS011;58439;51.046;13.692;2023-06-10T04:38:56;20.15;;;11.68;;
70818;SDS011;58439;51.046;13.692;2023-06-10T04:41:23;16.88;;;11.70;;
70818;SDS011;58439;51.046;13.692;2023-06-10T04:43:52;19.80;;;12.38;;
70818;SDS011;58439;51.046;13.692;2023-06-10T04:46:20;17.77;;;12.05;;
70818;SDS011;58439;51.046;13.692;2023-06-10T04:48:47;20.02;;;11.48;;
70818;SDS011;58439;51.046;13.692;2023-06-10T04:51:14;16.92;;;12.77;;
70818;SDS011;58439;51.046;13.692;2023-06-10T04:53:48;17.80;;;11.52;;
70818;SDS011;58439;51.046;13.692;2023-06-10T04:56:15;19.58;;;11.73;;
70818;SDS011;58439;51.046;13.692;2023-06-10T04:58:45;15.93;;;11.50;;
70818;SDS011;58439;51.046;13.692;2023-06-10T05:01:12;15.10;;;11.90;;
70818;SDS011;58439;51.046;13.692;2023-06-10T05:03:40;21.38;;;11.48;;
70818;SDS011;58439;51.046;13.692;2023-06-10T05:06:07;20.60;;;11.90;;
70818;SDS011;58439;51.046;13.692;2023-06-10T05:08:34;16.30;;;11.80;;
70818;SDS011;58439;51.046;13.692;2023-06-10T05:11:01;17.75;;;11.57;;
70818;SDS011;58439;51.046;13.692;2023-06-10T05:13:28;19.08;;;12.00;;
70818;SDS011;58439;51.046;13.692;2023-06-10T05:15:56;19.70;;;11.77;;
70818;SDS011;58439;51.046;13.692;2023-06-10T05:18:26;19.02;;;12.18;;
70818;SDS011;58439;51.046;13.692;2023-06-10T05:20:53;17.83;;;10.93;;
70818;SDS011;58439;51.046;13.692;2023-06-10T05:23:22;19.40;;;11.23;;
70818;SDS011;58439;51.046;13.692;2023-06-10T05:25:52;19.90;;;10.43;;
70818;SDS011;58439;51.046;13.692;2023-06-10T05:28:19;14.57;;;10.05;;
70818;SDS011;58439;51.046;13.692;2023-06-10T05:30:46;18.98;;;10.68;;
70818;SDS011;58439;51.046;13.692;2023-06-10T05:33:14;15.90;;;10.10;;
70818;SDS011;58439;51.046;13.692;2023-06-10T05:35:41;23.70;;;10.45;;
70818;SDS011;58439;51.046;13.692;2023-06-10T05:38:08;16.83;;;9.32;;
70818;SDS011;58439;51.046;13.692;2023-06-10T05:40:35;17.95;;;9.60;;
70818;SDS011;58439;51.046;13.692;2023-06-10T05:43:03;16.63;;;9.13;;
70818;SDS011;58439;51.046;13.692;2023-06-10T05:45:30;15.77;;;9.77;;
70818;SDS011;58439;51.046;13.692;2023-06-10T05:47:57;19.15;;;10.70;;
70818;SDS011;58439;51.046;13.692;2023-06-10T05:50:24;18.88;;;11.73;;
70818;SDS011;58439;51.046;13.692;2023-06-10T05:52:51;20.25;;;10.65;;
70818;SDS011;58439;51.046;13.692;2023-06-10T05:55:20;16.55;;;10.23;;
70818;SDS011;58439;51.046;13.692;2023-06-10T05:57:48;15.32;;;10.00;;
70818;SDS011;58439;51.046;13.692;2023-06-10T06:00:26;15.38;;;9.70;;
70818;SDS011;58439;51.046;13.692;2023-06-10T06:02:54;16.52;;;10.25;;
70818;SDS011;58439;51.046;13.692;2023-06-10T06:05:22;18.88;;;10.20;;
70818;SDS011;58439;51.046;13.692;2023-06-10T06:07:49;12.00;;;9.48;;
70818;SDS011;58439;51.046;13.692;2023-06-10T06:10:17;15.80;;;9.77;;
70818;SDS011;58439;51.046;13.692;2023-06-10T06:12:45;18.98;;;11.75;;
70818;SDS011;58439;51.046;13.692;2023-06-10T06:15:12;17.75;;;9.80;;
70818;SDS011;58439;51.046;13.692;2023-06-10T06:17:39;16.30;;;9.75;;
70818;SDS011;58439;51.046;13.692;2023-06-10T06:20:08;16.88;;;9.68;;
70818;SDS011;58439;51.046;13.692;2023-06-10T06:22:36;14.35;;;9.38;;
70818;SDS011;58439;51.046;13.692;2023-06-10T06:25:04;13.25;;;9.60;;
70818;SDS011;58439;51.046;13.692;2023-06-10T06:27:32;15.75;;;10.00;;
70818;SDS011;58439;51.046;13.692;2023-06-10T06:29:59;12.05;;;8.55;;
70818;SDS011;58439;51.046;13.692;2023-06-10T06:32:27;15.88;;;8.85;;
70818;SDS011;58439;51.046;13.692;2023-06-10T06:34:57;14.90;;;8.52;;
70818;SDS011;58439;51.046;13.692;2023-06-10T06:37:25;13.90;;;8.48;;
70818;SDS011;58439;51.046;13.692;2023-06-10T06:40:06;10.82;;;7.75;;
70818;SDS011;58439;51.046;13.692;2023-06-10T06:42:34;12.32;;;8.05;;
70818;SDS011;58439;51.046;13.692;2023-06-10T06:45:16;17.33;;;8.13;;
70818;SDS011;58439;51.046;13.692;2023-06-10T06:47:43;15.30;;;7.75;;
70818;SDS011;58439;51.046;13.692;2023-06-10T06:50:10;9.23;;;7.13;;
70818;SDS011;58439;51.046;13.692;2023-06-10T06:52:37;10.88;;;7.47;;
70818;SDS011;58439;51.046;13.692;2023-06-10T06:55:04;9.32;;;7.47;;
70818;SDS011;58439;51.046;13.692;2023-06-10T06:57:32;13.90;;;7.32;;
70818;SDS011;58439;51.046;13.692;2023-06-10T06:59:59;9.98;;;6.70;;
70818;SDS011;58439;51.046;13.692;2023-06-10T07:02:27;10.25;;;6.93;;
70818;SDS011;58439;51.046;13.692;2023-06-10T07:04:54;12.15;;;6.43;;
70818;SDS011;58439;51.046;13.692;2023-06-10T07:07:22;8.68;;;6.20;;
70818;SDS011;58439;51.046;13.692;2023-06-10T07:09:49;9.32;;;6.40;;
70818;SDS011;58439;51.046;13.692;2023-06-10T07:12:16;8.27;;;5.95;;
70818;SDS011;58439;51.046;13.692;2023-06-10T07:14:45;10.38;;;6.20;;
70818;SDS011;58439;51.046;13.692;2023-06-10T07:17:12;9.20;;;6.63;;
70818;SDS011;58439;51.046;13.692;2023-06-10T07:19:39;10.80;;;6.30;;
70818;SDS011;58439;51.046;13.692;2023-06-10T07:22:07;10.32;;;6.55;;
70818;SDS011;58439;51.046;13.692;2023-06-10T07:24:34;15.93;;;6.25;;
70818;SDS011;58439;51.046;13.692;2023-06-10T07:27:02;11.23;;;5.85;;
70818;SDS011;58439;51.046;13.692;2023-06-10T07:29:29;8.02;;;5.65;;
70818;SDS011;58439;51.046;13.692;2023-06-10T07:31:56;7.80;;;5.68;;
70818;SDS011;58439;51.046;13.692;2023-06-10T07:34:23;7.60;;;5.80;;
70818;SDS011;58439;51.046;13.692;2023-06-10T07:36:50;15.88;;;7.03;;
70818;SDS011;58439;51.046;13.692;2023-06-10T07:39:17;9.73;;;5.88;;
70818;SDS011;58439;51.046;13.692;2023-06-10T07:41:44;9.57;;;5.78;;
70818;SDS011;58439;51.046;13.692;2023-06-10T07:44:11;14.57;;;6.20;;
70818;SDS011;58439;51.046;13.692;2023-06-10T07:46:39;12.02;;;6.65;;
70818;SDS011;58439;51.046;13.692;2023-06-10T07:49:06;10.93;;;6.43;;
70818;SDS011;58439;51.046;13.692;2023-06-10T07:51:33;10.02;;;6.35;;
70818;SDS011;58439;51.046;13.692;2023-06-10T07:54:01;8.68;;;6.05;;
70818;SDS011;58439;51.046;13.692;2023-06-10T07:56:28;15.80;;;6.05;;
70818;SDS011;58439;51.046;13.692;2023-06-10T07:58:55;12.82;;;6.97;;
70818;SDS011;58439;51.046;13.692;2023-06-10T08:01:23;9.57;;;6.45;;
70818;SDS011;58439;51.046;13.692;2023-06-10T08:03:50;9.52;;;6.30;;
70818;SDS011;58439;51.046;13.692;2023-06-10T08:06:18;7.57;;;6.30;;
70818;SDS011;58439;51.046;13.692;2023-06-10T08:08:45;9.05;;;5.90;;
70818;SDS011;58439;51.046;13.692;2023-06-10T08:11:13;13.05;;;6.35;;
70818;SDS011;58439;51.046;13.692;2023-06-10T08:13:40;8.25;;;6.07;;
70818;SDS011;58439;51.046;13.692;2023-06-10T08:16:07;10.85;;;6.60;;
70818;SDS011;58439;51.046;13.692;2023-06-10T08:18:35;9.65;;;6.45;;
70818;SDS011;58439;51.046;13.692;2023-06-10T08:21:02;13.30;;;7.03;;
70818;SDS011;58439;51.046;13.692;2023-06-10T08:23:29;9.85;;;5.72;;
70818;SDS011;58439;51.046;13.692;2023-06-10T08:25:56;9.85;;;6.53;;
70818;SDS011;58439;51.046;13.692;2023-06-10T08:28:25;9.13;;;6.70;;
70818;SDS011;58439;51.046;13.692;2023-06-10T08:30:52;10.88;;;6.00;;
70818;SDS011;58439;51.046;13.692;2023-06-10T08:33:23;9.95;;;6.95;;
70818;SDS011;58439;51.046;13.692;2023-06-10T08:35:50;10.35;;;6.35;;
70818;SDS011;58439;51.046;13.692;2023-06-10T08:38:17;9.35;;;5.90;;
70818;SDS011;58439;51.046;13.692;2023-06-10T08:40:44;13.35;;;6.75;;
70818;SDS011;58439;51.046;13.692;2023-06-10T08:43:22;10.60;;;6.63;;
70818;SDS011;58439;51.046;13.692;2023-06-10T08:46:05;11.65;;;6.25;;
70818;SDS011;58439;51.046;13.692;2023-06-10T08:48:41;8.93;;;6.13;;
70818;SDS011;58439;51.046;13.692;2023-06-10T08:51:11;12.23;;;6.40;;
70818;SDS011;58439;51.046;13.692;2023-06-10T08:53:45;12.02;;;6.78;;
70818;SDS011;58439;51.046;13.692;2023-06-10T08:56:24;11.32;;;6.15;;
70818;SDS011;58439;51.046;13.692;2023-06-10T08:58:53;14.82;;;6.20;;
70818;SDS011;58439;51.046;13.692;2023-06-10T09:01:23;8.85;;;6.18;;
70818;SDS011;58439;51.046;13.692;2023-06-10T09:03:52;8.73;;;5.63;;
70818;SDS011;58439;51.046;13.692;2023-06-10T09:06:21;10.02;;;5.65;;
70818;SDS011;58439;51.046;13.692;2023-06-10T09:08:49;10.38;;;5.93;;
70818;SDS011;58439;51.046;13.692;2023-06-10T09:11:17;8.60;;;6.13;;
70818;SDS011;58439;51.046;13.692;2023-06-10T09:13:44;9.15;;;6.00;;
70818;SDS011;58439;51.046;13.692;2023-06-10T09:16:11;14.00;;;6.88;;
70818;SDS011;58439;51.046;13.692;2023-06-10T09:18:40;7.50;;;5.70;;
70818;SDS011;58439;51.046;13.692;2023-06-10T09:21:07;11.88;;;5.75;;
70818;SDS011;58439;51.046;13.692;2023-06-10T09:23:34;8.93;;;5.63;;
70818;SDS011;58439;51.046;13.692;2023-06-10T09:26:08;9.52;;;5.53;;
70818;SDS011;58439;51.046;13.692;2023-06-10T09:28:37;7.30;;;5.43;;
70818;SDS011;58439;51.046;13.692;2023-06-10T09:31:09;8.85;;;5.95;;
70818;SDS011;58439;51.046;13.692;2023-06-10T09:33:38;10.82;;;5.47;;
70818;SDS011;58439;51.046;13.692;2023-06-10T09:36:06;6.82;;;4.85;;
70818;SDS011;58439;51.046;13.692;2023-06-10T09:38:34;8.80;;;5.07;;
70818;SDS011;58439;51.046;13.692;2023-06-10T09:41:02;8.77;;;5.53;;
70818;SDS011;58439;51.046;13.692;2023-06-10T09:43:38;11.35;;;5.95;;
70818;SDS011;58439;51.046;13.692;2023-06-10T09:46:06;9.85;;;5.55;;
70818;SDS011;58439;51.046;13.692;2023-06-10T09:48:42;9.35;;;5.28;;
70818;SDS011;58439;51.046;13.692;2023-06-10T09:51:12;6.88;;;4.85;;
70818;SDS011;58439;51.046;13.692;2023-06-10T09:53:40;9.65;;;5.18;;
70818;SDS011;58439;51.046;13.692;2023-06-10T09:56:07;9.10;;;5.18;;
70818;SDS011;58439;51.046;13.692;2023-06-10T09:58:37;10.52;;;5.75;;
70818;SDS011;58439;51.046;13.692;2023-06-10T10:01:09;8.63;;;5.28;;
70818;SDS011;58439;51.046;13.692;2023-06-10T10:03:45;8.25;;;4.75;;
70818;SDS011;58439;51.046;13.692;2023-06-10T10:06:16;9.23;;;5.03;;
70818;SDS011;58439;51.046;13.692;2023-06-10T10:08:46;10.70;;;5.03;;
70818;SDS011;58439;51.046;13.692;2023-06-10T10:11:19;7.75;;;5.15;;
70818;SDS011;58439;51.046;13.692;2023-06-10T10:13:52;7.55;;;5.20;;
70818;SDS011;58439;51.046;13.692;2023-06-10T10:16:21;7.43;;;5.20;;
70818;SDS011;58439;51.046;13.692;2023-06-10T10:19:09;7.20;;;5.28;;
70818;SDS011;58439;51.046;13.692;2023-06-10T10:22:01;11.98;;;4.82;;
70818;SDS011;58439;51.046;13.692;2023-06-10T10:24:38;9.10;;;5.75;;
70818;SDS011;58439;51.046;13.692;2023-06-10T10:27:30;9.20;;;5.30;;
70818;SDS011;58439;51.046;13.692;2023-06-10T10:30:07;7.95;;;5.13;;
70818;SDS011;58439;51.046;13.692;2023-06-10T10:32:39;10.55;;;5.50;;
70818;SDS011;58439;51.046;13.692;2023-06-10T10:35:21;10.18;;;5.60;;
70818;SDS011;58439;51.046;13.692;2023-06-10T10:37:52;7.82;;;5.60;;
70818;SDS011;58439;51.046;13.692;2023-06-10T10:40:21;7.53;;;5.32;;
70818;SDS011;58439;51.046;13.692;2023-06-10T10:42:51;7.95;;;5.00;;
70818;SDS011;58439;51.046;13.692;2023-06-10T10:45:21;10.40;;;5.60;;
70818;SDS011;58439;51.046;13.692;2023-06-10T10:47:52;11.00;;;5.70;;
70818;SDS011;58439;51.046;13.692;2023-06-10T10:50:22;9.48;;;5.65;;
70818;SDS011;58439;51.046;13.692;2023-06-10T10:52:54;11.63;;;5.22;;
70818;SDS011;58439;51.046;13.692;2023-06-10T10:55:29;9.68;;;5.55;;
70818;SDS011;58439;51.046;13.692;2023-06-10T10:58:05;11.52;;;4.95;;
70818;SDS011;58439;51.046;13.692;2023-06-10T11:00:37;9.10;;;4.72;;
70818;SDS011;58439;51.046;13.692;2023-06-10T11:03:15;11.73;;;5.45;;
70818;SDS011;58439;51.046;13.692;2023-06-10T11:05:47;12.13;;;5.43;;
70818;SDS011;58439;51.046;13.692;2023-06-10T11:11:26;8.38;;;5.03;;
70818;SDS011;58439;51.046;13.692;2023-06-10T11:16:28;6.93;;;4.70;;
70818;SDS011;58439;51.046;13.692;2023-06-10T11:18:56;7.97;;;4.95;;
70818;SDS011;58439;51.046;13.692;2023-06-10T11:21:24;8.45;;;4.82;;
70818;SDS011;58439;51.046;13.692;2023-06-10T11:23:57;10.93;;;5.20;;
70818;SDS011;58439;51.046;13.692;2023-06-10T11:29:05;14.73;;;5.13;;
70818;SDS011;58439;51.046;13.692;2023-06-10T11:31:41;6.30;;;4.43;;
70818;SDS011;58439;51.046;13.692;2023-06-10T11:34:11;7.10;;;4.65;;
70818;SDS011;58439;51.046;13.692;2023-06-10T11:36:43;7.13;;;4.55;;
70818;SDS011;58439;51.046;13.692;2023-06-10T11:39:12;8.35;;;4.60;;
70818;SDS011;58439;51.046;13.692;2023-06-10T11:41:40;7.57;;;4.32;;
70818;SDS011;58439;51.046;13.692;2023-06-10T11:44:08;11.25;;;4.57;;
70818;SDS011;58439;51.046;13.692;2023-06-10T11:46:37;7.70;;;4.93;;
70818;SDS011;58439;51.046;13.692;2023-06-10T11:49:06;13.20;;;4.85;;
70818;SDS011;58439;51.046;13.692;2023-06-10T11:51:42;9.18;;;4.53;;
70818;SDS011;58439;51.046;13.692;2023-06-10T11:54:16;8.88;;;4.75;;
70818;SDS011;58439;51.046;13.692;2023-06-10T11:56:44;7.78;;;4.47;;
70818;SDS011;58439;51.046;13.692;2023-06-10T11:59:12;8.18;;;4.47;;
70818;SDS011;58439;51.046;13.692;2023-06-10T12:01:43;8.23;;;4.40;;
70818;SDS011;58439;51.046;13.692;2023-06-10T12:04:13;7.63;;;4.40;;
70818;SDS011;58439;51.046;13.692;2023-06-10T12:06:48;9.20;;;4.30;;
70818;SDS011;58439;51.046;13.692;2023-06-10T12:11:57;8.00;;;4.70;;
70818;SDS011;58439;51.046;13.692;2023-06-10T12:22:40;7.18;;;3.78;;
70818;SDS011;58439;51.046;13.692;2023-06-10T12:25:10;8.88;;;3.85;;
70818;SDS011;58439;51.046;13.692;2023-06-10T12:27:40;6.78;;;4.18;;
70818;SDS011;58439;51.046;13.692;2023-06-10T12:30:19;7.05;;;3.95;;
70818;SDS011;58439;51.046;13.692;2023-06-10T12:32:51;12.02;;;4.30;;
70818;SDS011;58439;51.046;13.692;2023-06-10T12:35:20;6.22;;;3.97;;
70818;SDS011;58439;51.046;13.692;2023-06-10T12:37:56;5.93;;;3.97;;
70818;SDS011;58439;51.046;13.692;2023-06-10T12:40:30;6.68;;;4.05;;
70818;SDS011;58439;51.046;13.692;2023-06-10T12:43:00;5.60;;;4.10;;
70818;SDS011;58439;51.046;13.692;2023-06-10T12:48:16;6.70;;;3.90;;
70818;SDS011;58439;51.046;13.692;2023-06-10T12:50:50;5.55;;;3.05;;
70818;SDS011;58439;51.046;13.692;2023-06-10T12:53:20;6.28;;;4.10;;
70818;SDS011;58439;51.046;13.692;2023-06-10T12:55:53;6.75;;;3.60;;
70818;SDS011;58439;51.046;13.692;2023-06-10T12:58:20;7.95;;;3.70;;
70818;SDS011;58439;51.046;13.692;2023-06-10T13:00:49;6.00;;;3.33;;
70818;SDS011;58439;51.046;13.692;2023-06-10T13:03:20;5.27;;;3.97;;
70818;SDS011;58439;51.046;13.692;2023-06-10T13:05:47;7.75;;;3.67;;
70818;SDS011;58439;51.046;13.692;2023-06-10T13:08:14;7.85;;;3.83;;
70818;SDS011;58439;51.046;13.692;2023-06-10T13:10:42;9.20;;;4.15;;
70818;SDS011;58439;51.046;13.692;2023-06-10T13:13:09;6.20;;;3.67;;
70818;SDS011;58439;51.046;13.692;2023-06-10T13:15:36;8.30;;;4.35;;
70818;SDS011;58439;51.046;13.692;2023-06-10T13:18:09;7.03;;;4.05;;
70818;SDS011;58439;51.046;13.692;2023-06-10T13:20:36;7.22;;;4.18;;
70818;SDS011;58439;51.046;13.692;2023-06-10T13:23:03;6.75;;;4.05;;
70818;SDS011;58439;51.046;13.692;2023-06-10T13:25:30;7.82;;;3.60;;
70818;SDS011;58439;51.046;13.692;2023-06-10T13:27:58;6.53;;;3.50;;
70818;SDS011;58439;51.046;13.692;2023-06-10T13:30:25;7.90;;;3.60;;
70818;SDS011;58439;51.046;13.692;2023-06-10T13:32:53;8.13;;;3.67;;
70818;SDS011;58439;51.046;13.692;2023-06-10T13:35:20;6.72;;;3.95;;
70818;SDS011;58439;51.046;13.692;2023-06-10T13:37:47;6.28;;;3.58;;
70818;SDS011;58439;51.046;13.692;2023-06-10T13:40:14;7.72;;;3.17;;
70818;SDS011;58439;51.046;13.692;2023-06-10T13:42:42;5.65;;;3.97;;
70818;SDS011;58439;51.046;13.692;2023-06-10T13:45:09;7.90;;;3.67;;
70818;SDS011;58439;51.046;13.692;2023-06-10T13:47:37;5.60;;;3.20;;
70818;SDS011;58439;51.046;13.692;2023-06-10T13:50:05;7.22;;;3.88;;
70818;SDS011;58439;51.046;13.692;2023-06-10T13:52:33;9.77;;;3.72;;
70818;SDS011;58439;51.046;13.692;2023-06-10T13:55:00;7.97;;;3.90;;
70818;SDS011;58439;51.046;13.692;2023-06-10T13:57:27;4.90;;;3.63;;
70818;SDS011;58439;51.046;13.692;2023-06-10T13:59:55;8.38;;;3.40;;
70818;SDS011;58439;51.046;13.692;2023-06-10T14:02:23;6.75;;;2.92;;
70818;SDS011;58439;51.046;13.692;2023-06-10T14:04:50;8.20;;;3.75;;
70818;SDS011;58439;51.046;13.692;2023-06-10T14:07:17;4.30;;;2.80;;
70818;SDS011;58439;51.046;13.692;2023-06-10T14:09:45;7.28;;;3.20;;
70818;SDS011;58439;51.046;13.692;2023-06-10T14:12:12;5.32;;;3.08;;
70818;SDS011;58439;51.046;13.692;2023-06-10T14:14:39;8.52;;;3.40;;
70818;SDS011;58439;51.046;13.692;2023-06-10T14:17:07;6.05;;;2.92;;
70818;SDS011;58439;51.046;13.692;2023-06-10T14:19:34;4.85;;;2.90;;
70818;SDS011;58439;51.046;13.692;2023-06-10T14:22:02;5.90;;;3.30;;
70818;SDS011;58439;51.046;13.692;2023-06-10T14:27:02;7.32;;;2.70;;
70818;SDS011;58439;51.046;13.692;2023-06-10T14:29:29;4.65;;;3.35;;
70818;SDS011;58439;51.046;13.692;2023-06-10T14:31:58;5.07;;;3.30;;
70818;SDS011;58439;51.046;13.692;2023-06-10T14:34:26;4.90;;;3.17;;
70818;SDS011;58439;51.046;13.692;2023-06-10T14:36:56;5.85;;;3.03;;
70818;SDS011;58439;51.046;13.692;2023-06-10T14:39:23;13.50;;;3.83;;
70818;SDS011;58439;51.046;13.692;2023-06-10T14:41:50;4.30;;;2.88;;
70818;SDS011;58439;51.046;13.692;2023-06-10T14:44:19;5.68;;;3.60;;
70818;SDS011;58439;51.046;13.692;2023-06-10T14:46:46;6.13;;;3.45;;
70818;SDS011;58439;51.046;13.692;2023-06-10T14:49:14;5.35;;;3.00;;
70818;SDS011;58439;51.046;13.692;2023-06-10T14:51:41;5.00;;;3.30;;
70818;SDS011;58439;51.046;13.692;2023-06-10T14:54:08;5.43;;;3.53;;
70818;SDS011;58439;51.046;13.692;2023-06-10T14:56:35;6.63;;;3.50;;
70818;SDS011;58439;51.046;13.692;2023-06-10T14:59:02;7.13;;;3.40;;
70818;SDS011;58439;51.046;13.692;2023-06-10T15:01:30;6.85;;;3.50;;